Polk, Pennsylvania
Current Conditions -  °F | °C
As of 1:55 AM on Friday 28 Nov 2014 (Local Time) from KFKL Reporting Station
Overcast Overcast  
Wind Chill: 16°   Ceiling: 7500
Heat Index: 25°   Visibility: 10mi
Dew Point: 19°   Wind: 8mph
Humidity: 80%   Direction: 300°WNW
Pressure: 30.18"   Gusts: NA
Location:  41.37°N, 79.93°W
Report Text: KFKL 280655Z AUTO 30007KT 10SM FEW065 OVC075 M04/M07 A3018 RMK AO1
Loading
Personal Weather Stations






























Interactive Weather Map New forecast layout! Learn more

10-Day Weather Forecast

Advertisements
Track Severe Weather on mobile